Terminal Aerodrome Forecast
Issued by NWS

Home | Current Version | Previous Version | Text Only | Print | Product List | Glossary On
Versions: 1 2 3 4 5 6 7 8 9 10 11 12 13 14 15 16 17 18 19 20 21 22 23
000
FTUS41 KBGM 252335
TAFELM
TAF
KELM 252335Z 2600/2624 24005KT P6SM BKN090
      TEMPO 2601/2604 4SM TSRA OVC025CB
     FM260400 22005KT P6SM OVC040
      TEMPO 2604/2608 4SM -SHRA OVC025
     FM260800 27005KT P6SM BKN015
     FM261300 32006KT P6SM SCT040=

USA.gov is the U.S. government's official web portal to all federal, state and local government web resources and services.